This is the latest recevied weather packets stored in our database for station/object KC7YCE. If no packets are shown the sender has not sent any weather packets the latest 10 day(s).
| Time | Temp. | Humidity | Pressure | Rain* | Wind** | Luminosity | Snow |
|---|---|---|---|---|---|---|---|
| 1777903787 | 6.67° C | 51% | 1018.3 hPa | 0 mm | - | - | - |
| 1777903188 | 5.56° C | 51% | 1018.3 hPa | 0 mm | - | - | - |
| 1777902587 | 4.44° C | 55% | 1018.3 hPa | 0 mm | - | - | - |
| 1777901987 | 4.44° C | 56% | 1018.4 hPa | 0 mm | - | - | - |
| 1777901387 | 3.89° C | 56% | 1018.4 hPa | 0 mm | - | - | - |
| 1777900787 | 3.33° C | 58% | 1018.3 hPa | 0 mm | - | - | - |
| 1777899587 | 2.22° C | 65% | 1018.2 hPa | 0 mm | - | - | - |
| 1777898987 | 1.67° C | 65% | 1018 hPa | 0 mm | - | - | - |
| 1777898357 | 1.11° C | 67% | 1018 hPa | 0 mm | - | - | - |
| 1777897727 | 1.11° C | 67% | 1018 hPa | 0 mm | - | - | - |
| 1777897127 | 1.11° C | 68% | 1017.9 hPa | 0 mm | - | - | - |
| 1777896530 | 1.11° C | 66% | 1017.9 hPa | 0 mm | - | - | - |
| 1777895927 | 1.67° C | 65% | 1017.9 hPa | 0 mm | - | - | - |
| 1777895327 | 1.67° C | 64% | 1018 hPa | 0 mm | - | - | - |
| 1777894727 | 1.67° C | 65% | 1017.8 hPa | 0 mm | - | - | - |
| 1777894127 | 1.67° C | 64% | 1017.9 hPa | 0 mm | - | - | - |
| 1777893528 | 1.67° C | 64% | 1018 hPa | 0 mm | - | - | - |
| 1777892897 | 1.67° C | 64% | 1017.9 hPa | 0 mm | - | - | - |
| 1777892299 | 1.67° C | 63% | 1017.9 hPa | 0 mm | - | - | - |
| 1777891697 | 1.11° C | 62% | 1018 hPa | 0 mm | - | - | - |
| 1777891067 | 1.11° C | 62% | 1017.9 hPa | 0 mm | - | - | - |
| 1777890436 | 1.11° C | 62% | 1017.9 hPa | 0 mm | - | - | - |
| 1777889807 | 1.11° C | 63% | 1017.9 hPa | 0 mm | - | - | - |
| 1777889207 | 1.11° C | 63% | 1018 hPa | 0 mm | - | - | - |
| 1777888607 | 1.11° C | 61% | 1017.8 hPa | 0 mm | - | - | - |
* Rain latest hour (hover to see other rain measurements)
** Current wind speed in m/s (hover to see current wind gust speed)